sensor_id;sensor_type;location;lat;lon;timestamp;P1;durP1;ratioP1;P2;durP2;ratioP2
21018;SDS011;10667;51.056;3.732;2022-09-30T00:01:38;15.02;;;12.07;;
21018;SDS011;10667;51.056;3.732;2022-09-30T00:04:04;16.88;;;13.70;;
21018;SDS011;10667;51.056;3.732;2022-09-30T00:06:31;16.02;;;12.88;;
21018;SDS011;10667;51.056;3.732;2022-09-30T00:08:59;22.45;;;13.63;;
21018;SDS011;10667;51.056;3.732;2022-09-30T00:11:27;14.77;;;12.85;;
21018;SDS011;10667;51.056;3.732;2022-09-30T00:13:55;15.77;;;14.13;;
21018;SDS011;10667;51.056;3.732;2022-09-30T00:16:22;18.17;;;13.60;;
21018;SDS011;10667;51.056;3.732;2022-09-30T00:18:49;17.95;;;14.48;;
21018;SDS011;10667;51.056;3.732;2022-09-30T00:21:15;19.05;;;13.60;;
21018;SDS011;10667;51.056;3.732;2022-09-30T00:23:42;16.35;;;14.50;;
21018;SDS011;10667;51.056;3.732;2022-09-30T00:26:15;17.85;;;14.05;;
21018;SDS011;10667;51.056;3.732;2022-09-30T00:28:43;18.50;;;14.30;;
21018;SDS011;10667;51.056;3.732;2022-09-30T00:31:11;16.83;;;14.43;;
21018;SDS011;10667;51.056;3.732;2022-09-30T00:33:38;17.23;;;14.85;;
21018;SDS011;10667;51.056;3.732;2022-09-30T00:36:05;16.17;;;14.40;;
21018;SDS011;10667;51.056;3.732;2022-09-30T00:38:31;16.40;;;14.32;;
21018;SDS011;10667;51.056;3.732;2022-09-30T00:40:57;19.73;;;16.40;;
21018;SDS011;10667;51.056;3.732;2022-09-30T00:43:40;18.67;;;16.70;;
21018;SDS011;10667;51.056;3.732;2022-09-30T00:46:51;22.52;;;17.50;;
21018;SDS011;10667;51.056;3.732;2022-09-30T00:49:06;23.13;;;17.38;;
21018;SDS011;10667;51.056;3.732;2022-09-30T00:51:44;21.52;;;18.00;;
21018;SDS011;10667;51.056;3.732;2022-09-30T00:54:16;20.98;;;17.13;;
21018;SDS011;10667;51.056;3.732;2022-09-30T00:56:47;21.42;;;17.38;;
21018;SDS011;10667;51.056;3.732;2022-09-30T00:59:18;25.58;;;17.83;;
21018;SDS011;10667;51.056;3.732;2022-09-30T01:01:55;23.25;;;17.83;;
21018;SDS011;10667;51.056;3.732;2022-09-30T01:04:21;22.67;;;18.17;;
21018;SDS011;10667;51.056;3.732;2022-09-30T01:06:49;22.17;;;18.48;;
21018;SDS011;10667;51.056;3.732;2022-09-30T01:09:15;22.75;;;18.92;;
21018;SDS011;10667;51.056;3.732;2022-09-30T01:11:42;22.73;;;19.52;;
21018;SDS011;10667;51.056;3.732;2022-09-30T01:14:12;22.27;;;18.70;;
21018;SDS011;10667;51.056;3.732;2022-09-30T01:41:43;22.30;;;19.42;;
21018;SDS011;10667;51.056;3.732;2022-09-30T01:44:32;25.00;;;18.98;;
21018;SDS011;10667;51.056;3.732;2022-09-30T01:47:28;23.55;;;18.48;;
21018;SDS011;10667;51.056;3.732;2022-09-30T01:49:58;22.42;;;18.48;;
21018;SDS011;10667;51.056;3.732;2022-09-30T01:55:05;22.95;;;18.13;;
21018;SDS011;10667;51.056;3.732;2022-09-30T02:00:10;27.13;;;19.55;;
21018;SDS011;10667;51.056;3.732;2022-09-30T02:02:47;25.33;;;18.95;;
21018;SDS011;10667;51.056;3.732;2022-09-30T02:08:25;28.55;;;18.92;;
21018;SDS011;10667;51.056;3.732;2022-09-30T02:10:57;23.60;;;18.42;;
21018;SDS011;10667;51.056;3.732;2022-09-30T02:16:05;22.58;;;18.45;;
21018;SDS011;10667;51.056;3.732;2022-09-30T02:21:26;21.23;;;18.00;;
21018;SDS011;10667;51.056;3.732;2022-09-30T02:23:59;22.92;;;18.15;;
21018;SDS011;10667;51.056;3.732;2022-09-30T02:26:30;23.05;;;19.33;;
21018;SDS011;10667;51.056;3.732;2022-09-30T02:29:02;31.45;;;20.83;;
21018;SDS011;10667;51.056;3.732;2022-09-30T02:31:37;24.38;;;20.23;;
21018;SDS011;10667;51.056;3.732;2022-09-30T02:34:10;21.20;;;18.58;;
21018;SDS011;10667;51.056;3.732;2022-09-30T02:36:45;27.60;;;19.95;;
21018;SDS011;10667;51.056;3.732;2022-09-30T02:39:36;23.02;;;18.88;;
21018;SDS011;10667;51.056;3.732;2022-09-30T02:42:11;23.05;;;18.90;;
21018;SDS011;10667;51.056;3.732;2022-09-30T02:44:44;21.95;;;17.63;;
21018;SDS011;10667;51.056;3.732;2022-09-30T02:47:15;24.17;;;19.27;;
21018;SDS011;10667;51.056;3.732;2022-09-30T02:50:43;20.98;;;18.58;;
21018;SDS011;10667;51.056;3.732;2022-09-30T02:58:16;24.48;;;19.33;;
21018;SDS011;10667;51.056;3.732;2022-09-30T03:00:45;27.42;;;20.42;;
21018;SDS011;10667;51.056;3.732;2022-09-30T03:03:22;23.17;;;19.35;;
21018;SDS011;10667;51.056;3.732;2022-09-30T03:05:56;24.08;;;18.80;;
21018;SDS011;10667;51.056;3.732;2022-09-30T03:08:22;26.35;;;19.65;;
21018;SDS011;10667;51.056;3.732;2022-09-30T03:10:48;25.75;;;19.42;;
21018;SDS011;10667;51.056;3.732;2022-09-30T03:29:54;25.77;;;20.42;;
21018;SDS011;10667;51.056;3.732;2022-09-30T03:38:46;21.77;;;18.60;;
21018;SDS011;10667;51.056;3.732;2022-09-30T03:44:15;28.58;;;19.60;;
21018;SDS011;10667;51.056;3.732;2022-09-30T03:46:55;27.98;;;20.40;;
21018;SDS011;10667;51.056;3.732;2022-09-30T03:49:34;23.13;;;18.63;;
21018;SDS011;10667;51.056;3.732;2022-09-30T03:52:06;26.10;;;19.02;;
21018;SDS011;10667;51.056;3.732;2022-09-30T03:54:42;20.30;;;17.13;;
21018;SDS011;10667;51.056;3.732;2022-09-30T03:57:14;24.80;;;18.20;;
21018;SDS011;10667;51.056;3.732;2022-09-30T03:59:40;21.70;;;17.67;;
21018;SDS011;10667;51.056;3.732;2022-09-30T04:02:05;20.58;;;17.35;;
21018;SDS011;10667;51.056;3.732;2022-09-30T04:04:37;20.98;;;18.10;;
21018;SDS011;10667;51.056;3.732;2022-09-30T04:07:07;22.60;;;18.42;;
21018;SDS011;10667;51.056;3.732;2022-09-30T04:09:38;21.30;;;18.02;;
21018;SDS011;10667;51.056;3.732;2022-09-30T04:12:05;24.40;;;18.02;;
21018;SDS011;10667;51.056;3.732;2022-09-30T04:14:31;20.77;;;17.15;;
21018;SDS011;10667;51.056;3.732;2022-09-30T04:16:58;20.23;;;16.38;;
21018;SDS011;10667;51.056;3.732;2022-09-30T04:19:24;20.25;;;17.45;;
21018;SDS011;10667;51.056;3.732;2022-09-30T04:21:50;22.58;;;17.63;;
21018;SDS011;10667;51.056;3.732;2022-09-30T04:24:17;21.85;;;17.13;;
21018;SDS011;10667;51.056;3.732;2022-09-30T04:26:43;22.40;;;17.15;;
21018;SDS011;10667;51.056;3.732;2022-09-30T04:29:09;21.60;;;17.83;;
21018;SDS011;10667;51.056;3.732;2022-09-30T04:31:34;27.90;;;18.02;;
21018;SDS011;10667;51.056;3.732;2022-09-30T04:34:00;21.08;;;17.48;;
21018;SDS011;10667;51.056;3.732;2022-09-30T04:36:26;21.02;;;17.95;;
21018;SDS011;10667;51.056;3.732;2022-09-30T04:38:52;22.30;;;17.60;;
21018;SDS011;10667;51.056;3.732;2022-09-30T04:41:17;21.63;;;18.50;;
21018;SDS011;10667;51.056;3.732;2022-09-30T04:43:44;23.52;;;18.02;;
21018;SDS011;10667;51.056;3.732;2022-09-30T04:46:14;22.35;;;17.15;;
21018;SDS011;10667;51.056;3.732;2022-09-30T04:48:42;25.00;;;19.17;;
21018;SDS011;10667;51.056;3.732;2022-09-30T04:51:19;22.58;;;16.45;;
21018;SDS011;10667;51.056;3.732;2022-09-30T04:53:46;23.38;;;18.45;;
21018;SDS011;10667;51.056;3.732;2022-09-30T04:56:12;23.35;;;18.40;;
21018;SDS011;10667;51.056;3.732;2022-09-30T04:58:39;25.80;;;17.58;;
21018;SDS011;10667;51.056;3.732;2022-09-30T05:01:05;22.98;;;17.58;;
21018;SDS011;10667;51.056;3.732;2022-09-30T05:03:33;21.88;;;17.20;;
21018;SDS011;10667;51.056;3.732;2022-09-30T05:05:59;24.85;;;17.05;;
21018;SDS011;10667;51.056;3.732;2022-09-30T05:08:25;21.27;;;17.80;;
21018;SDS011;10667;51.056;3.732;2022-09-30T05:10:58;20.60;;;16.88;;
21018;SDS011;10667;51.056;3.732;2022-09-30T05:13:30;21.90;;;16.95;;
21018;SDS011;10667;51.056;3.732;2022-09-30T05:15:58;22.65;;;17.23;;
21018;SDS011;10667;51.056;3.732;2022-09-30T05:18:24;23.15;;;17.05;;
21018;SDS011;10667;51.056;3.732;2022-09-30T05:20:52;20.15;;;16.95;;
21018;SDS011;10667;51.056;3.732;2022-09-30T05:23:21;21.58;;;17.17;;
21018;SDS011;10667;51.056;3.732;2022-09-30T05:25:48;27.20;;;17.85;;
21018;SDS011;10667;51.056;3.732;2022-09-30T05:28:14;20.80;;;17.77;;
21018;SDS011;10667;51.056;3.732;2022-09-30T05:30:40;23.63;;;16.73;;
21018;SDS011;10667;51.056;3.732;2022-09-30T05:33:07;23.60;;;17.23;;
21018;SDS011;10667;51.056;3.732;2022-09-30T05:35:34;22.75;;;17.85;;
21018;SDS011;10667;51.056;3.732;2022-09-30T05:38:00;23.13;;;18.45;;
21018;SDS011;10667;51.056;3.732;2022-09-30T05:40:28;24.35;;;18.17;;
21018;SDS011;10667;51.056;3.732;2022-09-30T05:42:55;22.63;;;17.48;;
21018;SDS011;10667;51.056;3.732;2022-09-30T05:45:22;23.10;;;17.30;;
21018;SDS011;10667;51.056;3.732;2022-09-30T05:47:51;21.65;;;17.15;;
21018;SDS011;10667;51.056;3.732;2022-09-30T05:50:18;24.75;;;17.00;;
21018;SDS011;10667;51.056;3.732;2022-09-30T05:52:45;23.50;;;17.58;;
21018;SDS011;10667;51.056;3.732;2022-09-30T05:55:10;30.40;;;18.23;;
21018;SDS011;10667;51.056;3.732;2022-09-30T05:57:37;24.55;;;17.95;;
21018;SDS011;10667;51.056;3.732;2022-09-30T06:00:03;31.30;;;18.08;;
21018;SDS011;10667;51.056;3.732;2022-09-30T06:02:30;21.73;;;17.77;;
21018;SDS011;10667;51.056;3.732;2022-09-30T06:04:55;20.27;;;17.05;;
21018;SDS011;10667;51.056;3.732;2022-09-30T06:07:21;25.42;;;17.10;;
21018;SDS011;10667;51.056;3.732;2022-09-30T06:09:47;25.77;;;18.40;;
21018;SDS011;10667;51.056;3.732;2022-09-30T06:12:13;22.98;;;17.88;;
21018;SDS011;10667;51.056;3.732;2022-09-30T06:14:39;25.73;;;17.70;;
21018;SDS011;10667;51.056;3.732;2022-09-30T06:17:05;27.42;;;18.05;;
21018;SDS011;10667;51.056;3.732;2022-09-30T06:19:31;25.83;;;18.70;;
21018;SDS011;10667;51.056;3.732;2022-09-30T06:21:57;27.85;;;17.90;;
21018;SDS011;10667;51.056;3.732;2022-09-30T06:24:22;22.30;;;18.80;;
21018;SDS011;10667;51.056;3.732;2022-09-30T06:26:49;25.25;;;18.60;;
21018;SDS011;10667;51.056;3.732;2022-09-30T06:29:14;25.35;;;18.75;;
21018;SDS011;10667;51.056;3.732;2022-09-30T06:31:40;26.60;;;18.98;;
21018;SDS011;10667;51.056;3.732;2022-09-30T06:34:06;25.55;;;19.00;;
21018;SDS011;10667;51.056;3.732;2022-09-30T06:36:32;23.38;;;18.23;;
21018;SDS011;10667;51.056;3.732;2022-09-30T06:38:59;24.17;;;18.23;;
21018;SDS011;10667;51.056;3.732;2022-09-30T06:41:25;25.30;;;18.67;;
21018;SDS011;10667;51.056;3.732;2022-09-30T06:43:52;27.73;;;19.10;;
21018;SDS011;10667;51.056;3.732;2022-09-30T06:46:18;24.80;;;18.30;;
21018;SDS011;10667;51.056;3.732;2022-09-30T06:48:45;23.98;;;18.20;;
21018;SDS011;10667;51.056;3.732;2022-09-30T06:51:11;22.15;;;17.85;;
21018;SDS011;10667;51.056;3.732;2022-09-30T06:53:37;24.88;;;18.35;;
21018;SDS011;10667;51.056;3.732;2022-09-30T06:56:07;24.08;;;17.38;;
21018;SDS011;10667;51.056;3.732;2022-09-30T06:58:32;25.67;;;18.52;;
21018;SDS011;10667;51.056;3.732;2022-09-30T07:00:59;22.25;;;18.30;;
21018;SDS011;10667;51.056;3.732;2022-09-30T07:03:27;26.38;;;18.65;;
21018;SDS011;10667;51.056;3.732;2022-09-30T07:05:56;25.15;;;19.50;;
21018;SDS011;10667;51.056;3.732;2022-09-30T07:08:24;21.55;;;18.40;;
21018;SDS011;10667;51.056;3.732;2022-09-30T07:10:53;21.73;;;17.63;;
21018;SDS011;10667;51.056;3.732;2022-09-30T07:13:18;24.58;;;18.20;;
21018;SDS011;10667;51.056;3.732;2022-09-30T07:15:44;26.58;;;17.88;;
21018;SDS011;10667;51.056;3.732;2022-09-30T07:18:10;22.42;;;17.35;;
21018;SDS011;10667;51.056;3.732;2022-09-30T07:20:35;23.58;;;17.67;;
21018;SDS011;10667;51.056;3.732;2022-09-30T07:23:01;26.27;;;17.58;;
21018;SDS011;10667;51.056;3.732;2022-09-30T07:25:27;21.67;;;16.15;;
21018;SDS011;10667;51.056;3.732;2022-09-30T07:27:52;20.80;;;16.58;;
21018;SDS011;10667;51.056;3.732;2022-09-30T07:30:19;21.85;;;16.30;;
21018;SDS011;10667;51.056;3.732;2022-09-30T07:32:46;20.92;;;16.23;;
21018;SDS011;10667;51.056;3.732;2022-09-30T07:35:12;22.48;;;16.25;;
21018;SDS011;10667;51.056;3.732;2022-09-30T07:37:37;20.95;;;15.23;;
21018;SDS011;10667;51.056;3.732;2022-09-30T07:40:04;19.75;;;15.10;;
21018;SDS011;10667;51.056;3.732;2022-09-30T07:42:32;27.58;;;16.38;;
21018;SDS011;10667;51.056;3.732;2022-09-30T07:45:00;28.50;;;15.77;;
21018;SDS011;10667;51.056;3.732;2022-09-30T07:47:26;23.13;;;14.05;;
21018;SDS011;10667;51.056;3.732;2022-09-30T07:49:52;20.20;;;14.32;;
21018;SDS011;10667;51.056;3.732;2022-09-30T07:52:17;18.13;;;14.15;;
21018;SDS011;10667;51.056;3.732;2022-09-30T07:54:43;22.58;;;15.60;;
21018;SDS011;10667;51.056;3.732;2022-09-30T07:57:09;23.05;;;15.23;;
21018;SDS011;10667;51.056;3.732;2022-09-30T07:59:36;17.85;;;13.93;;
21018;SDS011;10667;51.056;3.732;2022-09-30T08:02:03;25.90;;;14.35;;
21018;SDS011;10667;51.056;3.732;2022-09-30T08:04:30;20.48;;;14.32;;
21018;SDS011;10667;51.056;3.732;2022-09-30T08:06:56;18.67;;;13.50;;
21018;SDS011;10667;51.056;3.732;2022-09-30T08:09:24;18.60;;;14.27;;
21018;SDS011;10667;51.056;3.732;2022-09-30T08:11:51;18.67;;;13.88;;
21018;SDS011;10667;51.056;3.732;2022-09-30T08:14:19;20.30;;;14.60;;
21018;SDS011;10667;51.056;3.732;2022-09-30T08:16:47;20.60;;;14.07;;
21018;SDS011;10667;51.056;3.732;2022-09-30T08:19:16;17.98;;;13.48;;
21018;SDS011;10667;51.056;3.732;2022-09-30T08:21:44;22.00;;;13.55;;
21018;SDS011;10667;51.056;3.732;2022-09-30T08:24:11;21.48;;;13.43;;
21018;SDS011;10667;51.056;3.732;2022-09-30T08:26:37;18.65;;;13.38;;
21018;SDS011;10667;51.056;3.732;2022-09-30T08:29:03;14.50;;;12.55;;
21018;SDS011;10667;51.056;3.732;2022-09-30T08:31:29;18.45;;;13.50;;
21018;SDS011;10667;51.056;3.732;2022-09-30T08:33:57;17.40;;;12.48;;
21018;SDS011;10667;51.056;3.732;2022-09-30T08:36:24;15.32;;;12.90;;
21018;SDS011;10667;51.056;3.732;2022-09-30T08:38:50;24.38;;;13.05;;
21018;SDS011;10667;51.056;3.732;2022-09-30T08:41:28;20.48;;;13.65;;
21018;SDS011;10667;51.056;3.732;2022-09-30T08:49:36;17.27;;;12.23;;
21018;SDS011;10667;51.056;3.732;2022-09-30T08:52:41;15.23;;;11.85;;
21018;SDS011;10667;51.056;3.732;2022-09-30T08:55:22;16.75;;;12.63;;
21018;SDS011;10667;51.056;3.732;2022-09-30T08:57:51;17.08;;;11.93;;
21018;SDS011;10667;51.056;3.732;2022-09-30T09:00:19;17.58;;;11.90;;
21018;SDS011;10667;51.056;3.732;2022-09-30T09:06:07;17.35;;;12.20;;
21018;SDS011;10667;51.056;3.732;2022-09-30T09:08:23;17.67;;;12.32;;
21018;SDS011;10667;51.056;3.732;2022-09-30T09:11:09;23.83;;;13.35;;
21018;SDS011;10667;51.056;3.732;2022-09-30T09:16:29;16.52;;;12.05;;
21018;SDS011;10667;51.056;3.732;2022-09-30T09:19:15;20.20;;;12.00;;
21018;SDS011;10667;51.056;3.732;2022-09-30T09:21:47;16.77;;;11.93;;
21018;SDS011;10667;51.056;3.732;2022-09-30T09:24:24;15.10;;;11.73;;
21018;SDS011;10667;51.056;3.732;2022-09-30T09:26:51;16.60;;;11.80;;
21018;SDS011;10667;51.056;3.732;2022-09-30T09:32:18;19.52;;;11.65;;
21018;SDS011;10667;51.056;3.732;2022-09-30T09:34:44;16.42;;;11.77;;
21018;SDS011;10667;51.056;3.732;2022-09-30T09:40:26;11.07;;;9.80;;
21018;SDS011;10667;51.056;3.732;2022-09-30T09:45:30;13.35;;;10.00;;
21018;SDS011;10667;51.056;3.732;2022-09-30T09:48:06;14.48;;;9.27;;
21018;SDS011;10667;51.056;3.732;2022-09-30T09:53:33;12.27;;;8.35;;
21018;SDS011;10667;51.056;3.732;2022-09-30T09:56:12;12.80;;;8.43;;
21018;SDS011;10667;51.056;3.732;2022-09-30T10:01:32;12.55;;;8.07;;
21018;SDS011;10667;51.056;3.732;2022-09-30T10:06:52;9.68;;;7.03;;
21018;SDS011;10667;51.056;3.732;2022-09-30T10:09:33;11.30;;;7.30;;
21018;SDS011;10667;51.056;3.732;2022-09-30T10:14:29;9.63;;;7.82;;
21018;SDS011;10667;51.056;3.732;2022-09-30T10:17:04;9.40;;;6.47;;
21018;SDS011;10667;51.056;3.732;2022-09-30T10:19:41;9.98;;;6.90;;
21018;SDS011;10667;51.056;3.732;2022-09-30T10:22:28;13.30;;;7.20;;
21018;SDS011;10667;51.056;3.732;2022-09-30T10:25:08;9.95;;;8.02;;
21018;SDS011;10667;51.056;3.732;2022-09-30T10:27:47;12.30;;;7.78;;
21018;SDS011;10667;51.056;3.732;2022-09-30T10:32:58;11.98;;;7.88;;
21018;SDS011;10667;51.056;3.732;2022-09-30T10:35:27;10.68;;;7.75;;
21018;SDS011;10667;51.056;3.732;2022-09-30T10:37:53;14.27;;;9.43;;
21018;SDS011;10667;51.056;3.732;2022-09-30T10:40:23;13.82;;;8.50;;
21018;SDS011;10667;51.056;3.732;2022-09-30T10:42:52;18.02;;;8.05;;
21018;SDS011;10667;51.056;3.732;2022-09-30T10:45:20;10.18;;;7.70;;
21018;SDS011;10667;51.056;3.732;2022-09-30T10:47:49;10.95;;;8.25;;
21018;SDS011;10667;51.056;3.732;2022-09-30T10:50:21;11.80;;;8.50;;
21018;SDS011;10667;51.056;3.732;2022-09-30T10:55:30;9.65;;;8.18;;
21018;SDS011;10667;51.056;3.732;2022-09-30T11:00:48;11.90;;;8.10;;
21018;SDS011;10667;51.056;3.732;2022-09-30T11:03:23;9.55;;;8.27;;
21018;SDS011;10667;51.056;3.732;2022-09-30T11:05:52;11.85;;;8.38;;
21018;SDS011;10667;51.056;3.732;2022-09-30T11:08:21;14.45;;;8.77;;
21018;SDS011;10667;51.056;3.732;2022-09-30T11:19:45;12.73;;;8.07;;
21018;SDS011;10667;51.056;3.732;2022-09-30T11:22:42;12.90;;;6.53;;
21018;SDS011;10667;51.056;3.732;2022-09-30T11:25:14;9.07;;;6.18;;
21018;SDS011;10667;51.056;3.732;2022-09-30T11:36:20;6.30;;;5.28;;
21018;SDS011;10667;51.056;3.732;2022-09-30T11:41:16;7.13;;;5.15;;
21018;SDS011;10667;51.056;3.732;2022-09-30T11:44:00;8.30;;;5.05;;
21018;SDS011;10667;51.056;3.732;2022-09-30T11:58:09;7.22;;;4.65;;
21018;SDS011;10667;51.056;3.732;2022-09-30T12:00:41;5.80;;;4.55;;
21018;SDS011;10667;51.056;3.732;2022-09-30T12:03:17;8.27;;;4.38;;
21018;SDS011;10667;51.056;3.732;2022-09-30T12:05:50;6.93;;;4.50;;
21018;SDS011;10667;51.056;3.732;2022-09-30T12:14:24;5.93;;;4.22;;
21018;SDS011;10667;51.056;3.732;2022-09-30T12:16:54;4.78;;;3.60;;
21018;SDS011;10667;51.056;3.732;2022-09-30T12:19:30;4.93;;;3.50;;
21018;SDS011;10667;51.056;3.732;2022-09-30T12:24:42;6.72;;;3.65;;
21018;SDS011;10667;51.056;3.732;2022-09-30T12:27:32;5.60;;;3.58;;
21018;SDS011;10667;51.056;3.732;2022-09-30T12:30:14;5.68;;;3.95;;
21018;SDS011;10667;51.056;3.732;2022-09-30T12:35:53;7.55;;;5.25;;
21018;SDS011;10667;51.056;3.732;2022-09-30T12:45:24;7.45;;;4.30;;
21018;SDS011;10667;51.056;3.732;2022-09-30T12:48:07;8.98;;;6.05;;
21018;SDS011;10667;51.056;3.732;2022-09-30T12:50:41;7.72;;;4.57;;
21018;SDS011;10667;51.056;3.732;2022-09-30T12:53:24;7.38;;;4.55;;
21018;SDS011;10667;51.056;3.732;2022-09-30T12:56:02;4.47;;;4.07;;
21018;SDS011;10667;51.056;3.732;2022-09-30T12:58:49;7.07;;;4.22;;
21018;SDS011;10667;51.056;3.732;2022-09-30T13:01:17;7.80;;;3.80;;
21018;SDS011;10667;51.056;3.732;2022-09-30T13:03:51;5.10;;;3.83;;
21018;SDS011;10667;51.056;3.732;2022-09-30T13:06:23;7.03;;;4.55;;
21018;SDS011;10667;51.056;3.732;2022-09-30T13:09:16;9.45;;;4.15;;
21018;SDS011;10667;51.056;3.732;2022-09-30T13:14:32;5.53;;;3.47;;
21018;SDS011;10667;51.056;3.732;2022-09-30T13:19:39;7.18;;;4.72;;
21018;SDS011;10667;51.056;3.732;2022-09-30T13:27:31;5.18;;;3.70;;
21018;SDS011;10667;51.056;3.732;2022-09-30T13:29:59;7.00;;;4.03;;
21018;SDS011;10667;51.056;3.732;2022-09-30T13:32:35;7.55;;;3.65;;
21018;SDS011;10667;51.056;3.732;2022-09-30T13:35:11;5.22;;;3.47;;
21018;SDS011;10667;51.056;3.732;2022-09-30T13:46:31;4.18;;;3.10;;
21018;SDS011;10667;51.056;3.732;2022-09-30T13:52:20;7.22;;;3.13;;
21018;SDS011;10667;51.056;3.732;2022-09-30T13:54:53;5.05;;;2.60;;
21018;SDS011;10667;51.056;3.732;2022-09-30T13:57:33;5.45;;;2.47;;
21018;SDS011;10667;51.056;3.732;2022-09-30T14:00:13;3.95;;;2.47;;
21018;SDS011;10667;51.056;3.732;2022-09-30T14:05:47;3.90;;;2.50;;
21018;SDS011;10667;51.056;3.732;2022-09-30T14:14:29;6.97;;;3.00;;
21018;SDS011;10667;51.056;3.732;2022-09-30T14:17:33;8.32;;;2.92;;
21018;SDS011;10667;51.056;3.732;2022-09-30T14:20:08;6.95;;;3.42;;
21018;SDS011;10667;51.056;3.732;2022-09-30T14:22:46;6.05;;;3.20;;
21018;SDS011;10667;51.056;3.732;2022-09-30T14:25:16;7.32;;;2.75;;
21018;SDS011;10667;51.056;3.732;2022-09-30T14:30:31;5.13;;;3.38;;
21018;SDS011;10667;51.056;3.732;2022-09-30T14:33:30;7.78;;;3.00;;
21018;SDS011;10667;51.056;3.732;2022-09-30T14:35:59;5.07;;;2.53;;
21018;SDS011;10667;51.056;3.732;2022-09-30T14:38:27;8.25;;;3.00;;
21018;SDS011;10667;51.056;3.732;2022-09-30T14:40:59;5.38;;;3.10;;
21018;SDS011;10667;51.056;3.732;2022-09-30T14:43:34;4.90;;;2.97;;
21018;SDS011;10667;51.056;3.732;2022-09-30T14:46:05;3.97;;;3.10;;
21018;SDS011;10667;51.056;3.732;2022-09-30T14:48:40;5.32;;;2.70;;
21018;SDS011;10667;51.056;3.732;2022-09-30T14:51:09;6.13;;;3.25;;
21018;SDS011;10667;51.056;3.732;2022-09-30T14:53:39;6.07;;;3.05;;
21018;SDS011;10667;51.056;3.732;2022-09-30T14:56:25;6.28;;;2.63;;
21018;SDS011;10667;51.056;3.732;2022-09-30T14:58:51;6.22;;;2.78;;
21018;SDS011;10667;51.056;3.732;2022-09-30T15:01:21;4.82;;;2.95;;
21018;SDS011;10667;51.056;3.732;2022-09-30T15:03:48;5.47;;;2.70;;
21018;SDS011;10667;51.056;3.732;2022-09-30T15:06:41;5.55;;;2.70;;
21018;SDS011;10667;51.056;3.732;2022-09-30T15:09:24;7.28;;;2.67;;
21018;SDS011;10667;51.056;3.732;2022-09-30T15:11:53;3.55;;;2.28;;
21018;SDS011;10667;51.056;3.732;2022-09-30T15:14:20;2.95;;;2.65;;
21018;SDS011;10667;51.056;3.732;2022-09-30T15:16:54;3.17;;;2.30;;
21018;SDS011;10667;51.056;3.732;2022-09-30T15:19:22;5.45;;;2.63;;
21018;SDS011;10667;51.056;3.732;2022-09-30T15:21:54;3.22;;;2.15;;
21018;SDS011;10667;51.056;3.732;2022-09-30T15:24:23;5.40;;;2.60;;
21018;SDS011;10667;51.056;3.732;2022-09-30T15:26:50;3.55;;;2.50;;
21018;SDS011;10667;51.056;3.732;2022-09-30T15:29:17;5.65;;;2.88;;
21018;SDS011;10667;51.056;3.732;2022-09-30T15:31:47;5.38;;;2.20;;
21018;SDS011;10667;51.056;3.732;2022-09-30T15:34:20;4.38;;;2.13;;
21018;SDS011;10667;51.056;3.732;2022-09-30T15:36:55;3.35;;;2.17;;
21018;SDS011;10667;51.056;3.732;2022-09-30T15:39:31;3.72;;;2.10;;
21018;SDS011;10667;51.056;3.732;2022-09-30T15:42:35;4.60;;;2.33;;
21018;SDS011;10667;51.056;3.732;2022-09-30T15:47:57;8.07;;;3.33;;
21018;SDS011;10667;51.056;3.732;2022-09-30T15:50:39;4.30;;;2.08;;
21018;SDS011;10667;51.056;3.732;2022-09-30T15:53:17;4.80;;;2.13;;
21018;SDS011;10667;51.056;3.732;2022-09-30T15:55:45;3.88;;;2.20;;
21018;SDS011;10667;51.056;3.732;2022-09-30T16:01:11;3.65;;;2.80;;
21018;SDS011;10667;51.056;3.732;2022-09-30T16:03:38;3.25;;;2.25;;
21018;SDS011;10667;51.056;3.732;2022-09-30T16:06:12;5.20;;;2.58;;
21018;SDS011;10667;51.056;3.732;2022-09-30T16:08:43;5.18;;;2.70;;
21018;SDS011;10667;51.056;3.732;2022-09-30T16:11:18;2.58;;;2.38;;
21018;SDS011;10667;51.056;3.732;2022-09-30T16:13:49;4.50;;;2.83;;
21018;SDS011;10667;51.056;3.732;2022-09-30T16:16:23;5.22;;;2.47;;
21018;SDS011;10667;51.056;3.732;2022-09-30T16:18:51;5.65;;;2.20;;
21018;SDS011;10667;51.056;3.732;2022-09-30T16:21:52;2.47;;;2.00;;
21018;SDS011;10667;51.056;3.732;2022-09-30T16:26:46;8.02;;;2.72;;
21018;SDS011;10667;51.056;3.732;2022-09-30T16:29:16;3.35;;;2.15;;
21018;SDS011;10667;51.056;3.732;2022-09-30T16:31:42;2.55;;;2.33;;
21018;SDS011;10667;51.056;3.732;2022-09-30T16:36:52;4.22;;;2.20;;
21018;SDS011;10667;51.056;3.732;2022-09-30T16:39:19;5.25;;;2.60;;
21018;SDS011;10667;51.056;3.732;2022-09-30T16:41:45;3.13;;;2.35;;
21018;SDS011;10667;51.056;3.732;2022-09-30T16:44:11;3.95;;;2.85;;
21018;SDS011;10667;51.056;3.732;2022-09-30T16:46:38;4.07;;;2.47;;
21018;SDS011;10667;51.056;3.732;2022-09-30T16:49:11;5.18;;;2.70;;
21018;SDS011;10667;51.056;3.732;2022-09-30T16:51:42;4.85;;;2.90;;
21018;SDS011;10667;51.056;3.732;2022-09-30T16:54:08;3.45;;;2.35;;
21018;SDS011;10667;51.056;3.732;2022-09-30T16:56:35;4.47;;;2.42;;
21018;SDS011;10667;51.056;3.732;2022-09-30T16:59:01;4.00;;;2.53;;
21018;SDS011;10667;51.056;3.732;2022-09-30T17:01:27;3.30;;;2.63;;
21018;SDS011;10667;51.056;3.732;2022-09-30T17:03:53;4.63;;;2.33;;
21018;SDS011;10667;51.056;3.732;2022-09-30T17:06:24;6.72;;;2.85;;
21018;SDS011;10667;51.056;3.732;2022-09-30T17:08:52;4.55;;;2.65;;
21018;SDS011;10667;51.056;3.732;2022-09-30T17:11:19;4.38;;;2.40;;
21018;SDS011;10667;51.056;3.732;2022-09-30T17:13:53;6.35;;;2.75;;
21018;SDS011;10667;51.056;3.732;2022-09-30T17:16:19;4.88;;;2.60;;
21018;SDS011;10667;51.056;3.732;2022-09-30T17:18:44;5.88;;;2.70;;
21018;SDS011;10667;51.056;3.732;2022-09-30T17:21:10;4.32;;;2.88;;
21018;SDS011;10667;51.056;3.732;2022-09-30T17:23:35;5.05;;;2.75;;
21018;SDS011;10667;51.056;3.732;2022-09-30T17:26:05;4.32;;;2.60;;
21018;SDS011;10667;51.056;3.732;2022-09-30T17:28:30;7.18;;;2.80;;
21018;SDS011;10667;51.056;3.732;2022-09-30T17:30:58;4.00;;;3.45;;
21018;SDS011;10667;51.056;3.732;2022-09-30T17:33:24;6.25;;;3.05;;
21018;SDS011;10667;51.056;3.732;2022-09-30T17:35:59;7.35;;;2.80;;
21018;SDS011;10667;51.056;3.732;2022-09-30T17:38:26;4.50;;;2.90;;
21018;SDS011;10667;51.056;3.732;2022-09-30T17:40:52;3.45;;;2.63;;
21018;SDS011;10667;51.056;3.732;2022-09-30T17:43:37;5.22;;;3.00;;
21018;SDS011;10667;51.056;3.732;2022-09-30T17:46:03;6.68;;;2.97;;
21018;SDS011;10667;51.056;3.732;2022-09-30T17:48:30;5.55;;;3.63;;
21018;SDS011;10667;51.056;3.732;2022-09-30T17:50:55;7.93;;;3.22;;
21018;SDS011;10667;51.056;3.732;2022-09-30T17:53:22;6.78;;;4.25;;
21018;SDS011;10667;51.056;3.732;2022-09-30T17:55:59;7.18;;;2.90;;
21018;SDS011;10667;51.056;3.732;2022-09-30T17:58:26;4.60;;;3.13;;
21018;SDS011;10667;51.056;3.732;2022-09-30T18:00:53;3.10;;;2.80;;
21018;SDS011;10667;51.056;3.732;2022-09-30T18:03:21;5.95;;;3.05;;
21018;SDS011;10667;51.056;3.732;2022-09-30T18:05:47;5.50;;;3.90;;
21018;SDS011;10667;51.056;3.732;2022-09-30T18:08:13;6.57;;;3.45;;
21018;SDS011;10667;51.056;3.732;2022-09-30T18:10:38;6.03;;;3.38;;
21018;SDS011;10667;51.056;3.732;2022-09-30T18:13:04;5.15;;;2.97;;
21018;SDS011;10667;51.056;3.732;2022-09-30T18:15:30;11.73;;;3.65;;
21018;SDS011;10667;51.056;3.732;2022-09-30T18:17:56;7.50;;;3.45;;
21018;SDS011;10667;51.056;3.732;2022-09-30T18:20:22;4.93;;;3.55;;